Neal J. Seago — WDG3267 — position and weather

sailwx.info

Track history (hours):
 
Tides and Currents Weather Stations Pressure Air Temp Water Temp Dewpoint Dewpoint Depression Visibility Wind Speed Wind Dir Waves Ship Positions

Neal J. Seago

Owner: Blessey Enterprises, Inc., Harahan, LA. More information available from US FCC via Universal Licensing System and Coast Guard Vessel Documentation Center.

Last reported at 2017-Oct-18 09:01 UTC. Time now 2017-Oct-19 14:22 UTC.
Position N 29°34' W 094°27'.

Length 22 m; draft 3 m.

Type: Towing. MMSI: 367524270.

Date/timePositionNaut miles runAvg speedWind from/ knotsBaromVisibWave heightAir tempDewpointWater temp
2017-Oct-18 09:01N 29°34' W 094°27'0 4.9
2017-Oct-18 09:00N 29°34' W 094°27'2 3.4
2017-Oct-18 08:30N 29°34' W 094°25'  
2017-Oct-14 20:44N 29°30' W 094°52'1 5.9
2017-Oct-14 20:30N 29°31' W 094°53'3 5.9
2017-Oct-14 20:01N 29°33' W 094°55'3 5.9
2017-Oct-14 19:30N 29°36' W 094°57'3 6.1
2017-Oct-14 18:59N 29°39' W 094°58'3 6.2
2017-Oct-14 18:30N 29°42' W 094°59'3 5.6
2017-Oct-14 18:00N 29°44' W 095°02'3 5.7
2017-Oct-14 17:25N 29°46' W 095°05'2 5.6
2017-Oct-14 17:00N 29°44' W 095°07'4 0.1
2017-Oct-13 10:29N 29°45' W 095°12'0 0.8
2017-Oct-13 09:59N 29°45' W 095°11'3 5.5
2017-Oct-13 09:22N 29°44' W 095°08'2 5.6
2017-Oct-13 08:59N 29°45' W 095°06'2 3.1
2017-Oct-13 08:17N 29°47' W 095°05'0 0.3
2017-Oct-13 07:59N 29°47' W 095°05'0 0.0
2017-Oct-13 07:11N 29°47' W 095°05'0 0.0
2017-Oct-13 04:53N 29°47' W 095°05'0 0.0
2017-Oct-12 10:48N 29°47' W 095°05'0 0.3
2017-Oct-12 10:22N 29°47' W 095°05'0 0.0
2017-Oct-12 08:29N 29°47' W 095°05'0 0.0
2017-Oct-12 07:57N 29°47' W 095°05'0 0.0
2017-Oct-12 07:00N 29°47' W 095°05'0 0.0
2017-Oct-12 05:44N 29°47' W 095°05'0 0.0
2017-Oct-12 05:27N 29°47' W 095°05'0 0.0
2017-Oct-12 05:00N 29°47' W 095°05'0 0.0
2017-Oct-12 04:29N 29°47' W 095°05'0 0.0
2017-Oct-12 04:00N 29°47' W 095°05'0 0.0
2017-Oct-12 03:28N 29°47' W 095°05'0 0.0
2017-Oct-12 02:57N 29°47' W 095°05'0 0.0
2017-Oct-12 02:16N 29°47' W 095°05'0 0.0
2017-Oct-10 23:58N 29°47' W 095°05'0 0.0
2017-Oct-10 23:24N 29°47' W 095°05'0 0.0
2017-Oct-10 22:56N 29°47' W 095°05'0 0.0
2017-Oct-10 22:28N 29°47' W 095°05'0 0.0
2017-Oct-10 21:59N 29°47' W 095°05'0 0.0
2017-Oct-10 21:12N 29°47' W 095°05'0 0.0
2017-Oct-10 20:57N 29°47' W 095°05'0 0.2
2017-Oct-10 20:28N 29°47' W 095°05'0 0.0
2017-Oct-10 17:04N 29°47' W 095°05'0 0.1
2017-Oct-10 17:01N 29°47' W 095°05'0 0.0
2017-Oct-10 16:27N 29°47' W 095°05'0 0.0
2017-Oct-10 16:00N 29°47' W 095°05'0 0.0
2017-Oct-10 15:30N 29°47' W 095°05'0 0.0
2017-Oct-10 14:58N 29°47' W 095°05'0 0.0
2017-Oct-10 14:01N 29°47' W 095°05'0 0.0
2017-Oct-10 13:29N 29°47' W 095°05'0 0.0
2017-Oct-10 13:00N 29°47' W 095°05'0 0.0
2017-Oct-10 12:30N 29°47' W 095°05'0 0.0
2017-Oct-10 11:59N 29°47' W 095°05'0 0.0
2017-Oct-10 11:27N 29°47' W 095°05'0 0.0
2017-Oct-10 11:00N 29°47' W 095°05'0 0.0
2017-Oct-10 10:28N 29°47' W 095°05'0 0.0
2017-Oct-10 10:01N 29°47' W 095°05'0 0.0
2017-Oct-10 09:30N 29°47' W 095°05'0 0.0
2017-Oct-10 09:00N 29°47' W 095°05'0 0.0
2017-Oct-10 08:30N 29°47' W 095°05'0 0.0
2017-Oct-10 07:57N 29°47' W 095°05'0 0.0
2017-Oct-10 07:30N 29°47' W 095°05'0 0.0
2017-Oct-10 07:00N 29°47' W 095°05'0 0.0
2017-Oct-10 06:30N 29°47' W 095°05'0 0.0
2017-Oct-10 06:00N 29°47' W 095°05'0 0.0
2017-Oct-10 05:27N 29°47' W 095°05'0 0.0
2017-Oct-10 04:57N 29°47' W 095°05'0 0.0
2017-Oct-10 04:30N 29°47' W 095°05'0 0.0
2017-Oct-10 04:00N 29°47' W 095°05'0 0.0
2017-Oct-10 03:30N 29°47' W 095°05'0 0.0
2017-Oct-10 02:59N 29°47' W 095°05'0 0.0
2017-Oct-10 02:30N 29°47' W 095°05'0 0.0
2017-Oct-10 01:59N 29°47' W 095°05'0 0.0
2017-Oct-10 01:30N 29°47' W 095°05'0 0.0
2017-Oct-10 01:00N 29°47' W 095°05'0 0.0
2017-Oct-10 00:31N 29°47' W 095°05'0 0.0
2017-Oct-10 00:00N 29°47' W 095°05'0 0.0
2017-Oct-09 23:30N 29°47' W 095°05'0 0.0
2017-Oct-09 23:00N 29°47' W 095°05'0 0.0
2017-Oct-09 22:29N 29°47' W 095°05'0 0.0
2017-Oct-09 22:00N 29°47' W 095°05'0 0.0
2017-Oct-09 21:30N 29°47' W 095°05'0 0.0
2017-Oct-09 21:00N 29°47' W 095°05'0 0.0
2017-Oct-09 20:30N 29°47' W 095°05'0 0.0
2017-Oct-09 20:00N 29°47' W 095°05'0 0.0
2017-Oct-09 19:29N 29°47' W 095°05'0 0.0
2017-Oct-09 19:00N 29°47' W 095°05'0 0.0
2017-Oct-09 18:30N 29°47' W 095°05'0 0.0
2017-Oct-09 17:52N 29°47' W 095°05'0 0.0
2017-Oct-09 17:22N 29°47' W 095°05'0 0.0
2017-Oct-09 17:00N 29°47' W 095°05'0 0.0
2017-Oct-09 16:28N 29°47' W 095°05'0 0.0
2017-Oct-09 15:54N 29°47' W 095°05'0 0.0
2017-Oct-09 15:29N 29°47' W 095°05'0 0.0
2017-Oct-09 07:12N 29°47' W 095°05'0 0.0
2017-Oct-09 06:59N 29°47' W 095°05'0 0.0
2017-Oct-08 22:01N 29°47' W 095°05'0 0.0
2017-Oct-08 14:13N 29°47' W 095°05'0 0.0
2017-Oct-08 13:48N 29°47' W 095°05'0 0.0
2017-Oct-08 13:23N 29°47' W 095°05'0 0.0
2017-Oct-08 12:02N 29°47' W 095°05'0 0.0
2017-Oct-08 11:41N 29°47' W 095°05'0 0.0
2017-Oct-08 09:49N 29°47' W 095°05'  
Track history (hours):
 
Tides and Currents Weather Stations Pressure Air Temp Water Temp Dewpoint Dewpoint Depression Visibility Wind Speed Wind Dir Waves Ship Positions

Neal J. Seago

Owner: Blessey Enterprises, Inc., Harahan, LA. More information available from US FCC via Universal Licensing System and Coast Guard Vessel Documentation Center.

Last reported at 2017-Oct-18 09:01 UTC. Time now 2017-Oct-19 14:22 UTC.
Position N 29°34' W 094°27'.

Length 22 m; draft 3 m.

Type: Towing. MMSI: 367524270.

Date/timePositionNaut miles runAvg speedWind from/ knotsBaromVisibWave heightAir tempDewpointWater temp
2017-Oct-18 09:01N 29°34' W 094°27'0 4.9
2017-Oct-18 09:00N 29°34' W 094°27'2 3.4
2017-Oct-18 08:30N 29°34' W 094°25'  
2017-Oct-14 20:44N 29°30' W 094°52'1 5.9
2017-Oct-14 20:30N 29°31' W 094°53'3 5.9
2017-Oct-14 20:01N 29°33' W 094°55'3 5.9
2017-Oct-14 19:30N 29°36' W 094°57'3 6.1
2017-Oct-14 18:59N 29°39' W 094°58'3 6.2
2017-Oct-14 18:30N 29°42' W 094°59'3 5.6
2017-Oct-14 18:00N 29°44' W 095°02'3 5.7
2017-Oct-14 17:25N 29°46' W 095°05'2 5.6
2017-Oct-14 17:00N 29°44' W 095°07'4 0.1
2017-Oct-13 10:29N 29°45' W 095°12'0 0.8
2017-Oct-13 09:59N 29°45' W 095°11'3 5.5
2017-Oct-13 09:22N 29°44' W 095°08'2 5.6
2017-Oct-13 08:59N 29°45' W 095°06'2 3.1
2017-Oct-13 08:17N 29°47' W 095°05'0 0.3
2017-Oct-13 07:59N 29°47' W 095°05'0 0.0
2017-Oct-13 07:11N 29°47' W 095°05'0 0.0
2017-Oct-13 04:53N 29°47' W 095°05'0 0.0
2017-Oct-12 10:48N 29°47' W 095°05'0 0.3
2017-Oct-12 10:22N 29°47' W 095°05'0 0.0
2017-Oct-12 08:29N 29°47' W 095°05'0 0.0
2017-Oct-12 07:57N 29°47' W 095°05'0 0.0
2017-Oct-12 07:00N 29°47' W 095°05'0 0.0
2017-Oct-12 05:44N 29°47' W 095°05'0 0.0
2017-Oct-12 05:27N 29°47' W 095°05'0 0.0
2017-Oct-12 05:00N 29°47' W 095°05'0 0.0
2017-Oct-12 04:29N 29°47' W 095°05'0 0.0
2017-Oct-12 04:00N 29°47' W 095°05'0 0.0
2017-Oct-12 03:28N 29°47' W 095°05'0 0.0
2017-Oct-12 02:57N 29°47' W 095°05'0 0.0
2017-Oct-12 02:16N 29°47' W 095°05'0 0.0
2017-Oct-10 23:58N 29°47' W 095°05'0 0.0
2017-Oct-10 23:24N 29°47' W 095°05'0 0.0
2017-Oct-10 22:56N 29°47' W 095°05'0 0.0
2017-Oct-10 22:28N 29°47' W 095°05'0 0.0
2017-Oct-10 21:59N 29°47' W 095°05'0 0.0
2017-Oct-10 21:12N 29°47' W 095°05'0 0.0
2017-Oct-10 20:57N 29°47' W 095°05'0 0.2
2017-Oct-10 20:28N 29°47' W 095°05'0 0.0
2017-Oct-10 17:04N 29°47' W 095°05'0 0.1
2017-Oct-10 17:01N 29°47' W 095°05'0 0.0
2017-Oct-10 16:27N 29°47' W 095°05'0 0.0
2017-Oct-10 16:00N 29°47' W 095°05'0 0.0
2017-Oct-10 15:30N 29°47' W 095°05'0 0.0
2017-Oct-10 14:58N 29°47' W 095°05'0 0.0
2017-Oct-10 14:01N 29°47' W 095°05'0 0.0
2017-Oct-10 13:29N 29°47' W 095°05'0 0.0
2017-Oct-10 13:00N 29°47' W 095°05'0 0.0
2017-Oct-10 12:30N 29°47' W 095°05'0 0.0
2017-Oct-10 11:59N 29°47' W 095°05'0 0.0
2017-Oct-10 11:27N 29°47' W 095°05'0 0.0
2017-Oct-10 11:00N 29°47' W 095°05'0 0.0
2017-Oct-10 10:28N 29°47' W 095°05'0 0.0
2017-Oct-10 10:01N 29°47' W 095°05'0 0.0
2017-Oct-10 09:30N 29°47' W 095°05'0 0.0
2017-Oct-10 09:00N 29°47' W 095°05'0 0.0
2017-Oct-10 08:30N 29°47' W 095°05'0 0.0
2017-Oct-10 07:57N 29°47' W 095°05'0 0.0
2017-Oct-10 07:30N 29°47' W 095°05'0 0.0
2017-Oct-10 07:00N 29°47' W 095°05'0 0.0
2017-Oct-10 06:30N 29°47' W 095°05'0 0.0
2017-Oct-10 06:00N 29°47' W 095°05'0 0.0
2017-Oct-10 05:27N 29°47' W 095°05'0 0.0
2017-Oct-10 04:57N 29°47' W 095°05'0 0.0
2017-Oct-10 04:30N 29°47' W 095°05'0 0.0
2017-Oct-10 04:00N 29°47' W 095°05'0 0.0
2017-Oct-10 03:30N 29°47' W 095°05'0 0.0
2017-Oct-10 02:59N 29°47' W 095°05'0 0.0
2017-Oct-10 02:30N 29°47' W 095°05'0 0.0
2017-Oct-10 01:59N 29°47' W 095°05'0 0.0
2017-Oct-10 01:30N 29°47' W 095°05'0 0.0
2017-Oct-10 01:00N 29°47' W 095°05'0 0.0
2017-Oct-10 00:31N 29°47' W 095°05'0 0.0
2017-Oct-10 00:00N 29°47' W 095°05'0 0.0
2017-Oct-09 23:30N 29°47' W 095°05'0 0.0
2017-Oct-09 23:00N 29°47' W 095°05'0 0.0
2017-Oct-09 22:29N 29°47' W 095°05'0 0.0
2017-Oct-09 22:00N 29°47' W 095°05'0 0.0
2017-Oct-09 21:30N 29°47' W 095°05'0 0.0
2017-Oct-09 21:00N 29°47' W 095°05'0 0.0
2017-Oct-09 20:30N 29°47' W 095°05'0 0.0
2017-Oct-09 20:00N 29°47' W 095°05'0 0.0
2017-Oct-09 19:29N 29°47' W 095°05'0 0.0
2017-Oct-09 19:00N 29°47' W 095°05'0 0.0
2017-Oct-09 18:30N 29°47' W 095°05'0 0.0
2017-Oct-09 17:52N 29°47' W 095°05'0 0.0
2017-Oct-09 17:22N 29°47' W 095°05'0 0.0
2017-Oct-09 17:00N 29°47' W 095°05'0 0.0
2017-Oct-09 16:28N 29°47' W 095°05'0 0.0
2017-Oct-09 15:54N 29°47' W 095°05'0 0.0
2017-Oct-09 15:29N 29°47' W 095°05'0 0.0
2017-Oct-09 07:12N 29°47' W 095°05'0 0.0
2017-Oct-09 06:59N 29°47' W 095°05'0 0.0
2017-Oct-08 22:01N 29°47' W 095°05'0 0.0
2017-Oct-08 14:13N 29°47' W 095°05'0 0.0
2017-Oct-08 13:48N 29°47' W 095°05'0 0.0
2017-Oct-08 13:23N 29°47' W 095°05'0 0.0
2017-Oct-08 12:02N 29°47' W 095°05'0 0.0
2017-Oct-08 11:41N 29°47' W 095°05'0 0.0
2017-Oct-08 09:49N 29°47' W 095°05'  

Dump ship's entire track history